South Daytona, Florida
Current Conditions -  °F | °C
As of 3:53 PM on Thursday 20 Nov 2014 (Local Time) from KDAB Reporting Station
Broken Clouds Broken Clouds  
Wind Chill: 62°   Ceiling: 25000
Heat Index: 62°   Visibility: 10mi
Dew Point: 42°   Wind: 13mph
Humidity: 48%   Direction: 360°N
Pressure: 30.22"   Gusts: NA
Location:  29.18°N, 81.01°W
Report Text: KDAB 202053Z 36011KT 10SM FEW040 SCT150 BKN250 17/06 A3022 RMK AO2 SLP233 T01670056 56008
Loading
Personal Weather Stations






























Interactive Weather Map New forecast layout! Learn more

10-Day Weather Forecast

Advertisements
Track Severe Weather on mobile